sensor_id;sensor_type;location;lat;lon;timestamp;pressure;altitude;pressure_sealevel;temperature;humidity
50434;BME280;36361;38.954;-9.002;2023-01-28T00:00:32;101265.88;;;10.97;69.94
50434;BME280;36361;38.954;-9.002;2023-01-28T00:01:33;101270.25;;;10.50;71.56
50434;BME280;36361;38.954;-9.002;2023-01-28T00:02:35;101279.09;;;10.52;72.85
50434;BME280;36361;38.954;-9.002;2023-01-28T00:03:35;101265.13;;;10.62;71.50
50434;BME280;36361;38.954;-9.002;2023-01-28T00:04:37;101274.91;;;10.56;71.84
50434;BME280;36361;38.954;-9.002;2023-01-28T00:05:46;101269.88;;;10.60;71.60
50434;BME280;36361;38.954;-9.002;2023-01-28T00:06:48;101278.25;;;10.58;71.62
50434;BME280;36361;38.954;-9.002;2023-01-28T00:07:49;101269.88;;;10.60;71.94
50434;BME280;36361;38.954;-9.002;2023-01-28T00:08:50;101266.16;;;10.61;80.80
50434;BME280;36361;38.954;-9.002;2023-01-28T00:09:52;101262.34;;;10.55;76.43
50434;BME280;36361;38.954;-9.002;2023-01-28T00:10:52;101271.75;;;10.52;78.08
50434;BME280;36361;38.954;-9.002;2023-01-28T00:11:53;101266.53;;;10.58;70.91
50434;BME280;36361;38.954;-9.002;2023-01-28T00:12:54;101265.34;;;10.67;70.82
50434;BME280;36361;38.954;-9.002;2023-01-28T00:13:55;101258.16;;;10.52;70.63
50434;BME280;36361;38.954;-9.002;2023-01-28T00:14:55;101262.06;;;10.43;82.06
50434;BME280;36361;38.954;-9.002;2023-01-28T00:16:01;101265.53;;;10.65;76.93
50434;BME280;36361;38.954;-9.002;2023-01-28T00:17:04;101263.44;;;10.67;71.40
50434;BME280;36361;38.954;-9.002;2023-01-28T00:18:05;101268.69;;;10.69;68.75
50434;BME280;36361;38.954;-9.002;2023-01-28T00:19:06;101265.16;;;10.75;67.38
50434;BME280;36361;38.954;-9.002;2023-01-28T00:20:08;101265.75;;;10.64;68.88
50434;BME280;36361;38.954;-9.002;2023-01-28T00:21:11;101270.88;;;10.45;70.16
50434;BME280;36361;38.954;-9.002;2023-01-28T00:22:12;101269.47;;;10.56;69.04
50434;BME280;36361;38.954;-9.002;2023-01-28T00:23:13;101275.34;;;10.60;70.70
50434;BME280;36361;38.954;-9.002;2023-01-28T00:24:13;101276.53;;;10.50;70.33
50434;BME280;36361;38.954;-9.002;2023-01-28T00:25:15;101272.78;;;9.95;72.38
50434;BME280;36361;38.954;-9.002;2023-01-28T00:26:15;101268.84;;;9.77;72.73
50434;BME280;36361;38.954;-9.002;2023-01-28T00:27:18;101269.56;;;10.13;82.00
50434;BME280;36361;38.954;-9.002;2023-01-28T00:28:20;101273.25;;;10.06;78.42
50434;BME280;36361;38.954;-9.002;2023-01-28T00:29:21;101267.94;;;10.47;83.72
50434;BME280;36361;38.954;-9.002;2023-01-28T00:30:22;101269.00;;;9.96;72.96
50434;BME280;36361;38.954;-9.002;2023-01-28T00:31:24;101273.03;;;10.01;72.96
50434;BME280;36361;38.954;-9.002;2023-01-28T00:32:27;101276.94;;;9.91;74.55
50434;BME280;36361;38.954;-9.002;2023-01-28T00:33:28;101267.00;;;10.05;77.12
50434;BME280;36361;38.954;-9.002;2023-01-28T00:34:28;101275.00;;;10.41;81.95
50434;BME280;36361;38.954;-9.002;2023-01-28T00:35:29;101272.56;;;10.46;71.29
50434;BME280;36361;38.954;-9.002;2023-01-28T00:36:33;101268.88;;;10.33;68.52
50434;BME280;36361;38.954;-9.002;2023-01-28T00:37:39;101269.63;;;10.89;74.59
50434;BME280;36361;38.954;-9.002;2023-01-28T00:38:41;101272.66;;;11.07;66.46
50434;BME280;36361;38.954;-9.002;2023-01-28T00:39:42;101273.84;;;10.92;68.37
50434;BME280;36361;38.954;-9.002;2023-01-28T00:40:43;101272.75;;;10.86;71.00
50434;BME280;36361;38.954;-9.002;2023-01-28T00:41:44;101272.69;;;10.73;67.30
50434;BME280;36361;38.954;-9.002;2023-01-28T00:42:45;101269.88;;;10.60;68.93
50434;BME280;36361;38.954;-9.002;2023-01-28T00:43:46;101270.72;;;10.60;68.58
50434;BME280;36361;38.954;-9.002;2023-01-28T00:44:46;101276.53;;;10.50;68.72
50434;BME280;36361;38.954;-9.002;2023-01-28T00:45:47;101277.00;;;10.54;68.69
50434;BME280;36361;38.954;-9.002;2023-01-28T00:46:48;101276.16;;;10.53;70.10
50434;BME280;36361;38.954;-9.002;2023-01-28T00:47:49;101278.69;;;10.55;72.24
50434;BME280;36361;38.954;-9.002;2023-01-28T00:48:53;101284.53;;;10.59;72.49
50434;BME280;36361;38.954;-9.002;2023-01-28T00:49:54;101285.00;;;10.62;67.26
50434;BME280;36361;38.954;-9.002;2023-01-28T00:50:55;101275.63;;;10.71;76.31
50434;BME280;36361;38.954;-9.002;2023-01-28T00:51:56;101278.31;;;10.65;70.62
50434;BME280;36361;38.954;-9.002;2023-01-28T00:52:57;101282.50;;;10.67;68.20
50434;BME280;36361;38.954;-9.002;2023-01-28T00:53:58;101284.91;;;10.49;67.51
50434;BME280;36361;38.954;-9.002;2023-01-28T00:55:03;101281.50;;;10.40;69.84
50434;BME280;36361;38.954;-9.002;2023-01-28T00:56:06;101287.41;;;10.44;76.35
50434;BME280;36361;38.954;-9.002;2023-01-28T00:57:07;101279.66;;;10.47;68.38
50434;BME280;36361;38.954;-9.002;2023-01-28T00:58:08;101286.94;;;10.40;68.93
50434;BME280;36361;38.954;-9.002;2023-01-28T00:59:12;101285.72;;;10.43;67.28
50434;BME280;36361;38.954;-9.002;2023-01-28T01:00:15;101279.81;;;10.39;68.43
50434;BME280;36361;38.954;-9.002;2023-01-28T01:01:25;101286.56;;;10.43;69.57
50434;BME280;36361;38.954;-9.002;2023-01-28T01:02:26;101281.19;;;10.57;65.87
50434;BME280;36361;38.954;-9.002;2023-01-28T01:03:27;101278.03;;;10.53;66.04
50434;BME280;36361;38.954;-9.002;2023-01-28T01:04:28;101279.41;;;10.36;66.96
50434;BME280;36361;38.954;-9.002;2023-01-28T01:05:40;101278.06;;;10.25;67.69
50434;BME280;36361;38.954;-9.002;2023-01-28T01:06:42;101286.47;;;10.30;68.87
50434;BME280;36361;38.954;-9.002;2023-01-28T01:07:45;101279.03;;;10.45;66.40
50434;BME280;36361;38.954;-9.002;2023-01-28T01:08:46;101277.56;;;10.43;67.15
50434;BME280;36361;38.954;-9.002;2023-01-28T01:09:51;101282.41;;;10.47;74.73
50434;BME280;36361;38.954;-9.002;2023-01-28T01:10:52;101275.97;;;10.55;66.68
50434;BME280;36361;38.954;-9.002;2023-01-28T01:11:53;101284.88;;;10.42;65.95
50434;BME280;36361;38.954;-9.002;2023-01-28T01:12:53;101284.63;;;10.37;66.49
50434;BME280;36361;38.954;-9.002;2023-01-28T01:13:57;101285.63;;;10.30;69.60
50434;BME280;36361;38.954;-9.002;2023-01-28T01:14:58;101281.03;;;10.30;67.91
50434;BME280;36361;38.954;-9.002;2023-01-28T01:17:04;101292.22;;;10.48;66.89
50434;BME280;36361;38.954;-9.002;2023-01-28T01:18:04;101275.00;;;10.41;67.31
50434;BME280;36361;38.954;-9.002;2023-01-28T01:19:06;101287.34;;;10.37;67.82
50434;BME280;36361;38.954;-9.002;2023-01-28T01:20:18;101281.28;;;10.35;68.07
50434;BME280;36361;38.954;-9.002;2023-01-28T01:21:22;101289.81;;;10.32;67.07
50434;BME280;36361;38.954;-9.002;2023-01-28T01:22:23;101280.50;;;10.20;67.40
50434;BME280;36361;38.954;-9.002;2023-01-28T01:23:28;101283.50;;;10.25;66.26
50434;BME280;36361;38.954;-9.002;2023-01-28T01:24:30;101285.94;;;10.20;67.13
50434;BME280;36361;38.954;-9.002;2023-01-28T01:25:33;101289.31;;;10.22;66.88
50434;BME280;36361;38.954;-9.002;2023-01-28T01:26:34;101285.38;;;10.03;67.94
50434;BME280;36361;38.954;-9.002;2023-01-28T01:27:35;101282.81;;;9.95;68.73
50434;BME280;36361;38.954;-9.002;2023-01-28T01:28:36;101283.72;;;10.02;68.39
50434;BME280;36361;38.954;-9.002;2023-01-28T01:29:36;101274.97;;;10.07;71.89
50434;BME280;36361;38.954;-9.002;2023-01-28T01:30:40;101284.25;;;10.19;68.03
50434;BME280;36361;38.954;-9.002;2023-01-28T01:31:41;101277.78;;;10.20;66.80
50434;BME280;36361;38.954;-9.002;2023-01-28T01:32:42;101277.16;;;10.18;67.89
50434;BME280;36361;38.954;-9.002;2023-01-28T01:33:45;101276.25;;;10.11;67.32
50434;BME280;36361;38.954;-9.002;2023-01-28T01:34:47;101279.38;;;10.08;68.20
50434;BME280;36361;38.954;-9.002;2023-01-28T01:35:52;101278.69;;;10.06;68.16
50434;BME280;36361;38.954;-9.002;2023-01-28T01:36:57;101281.63;;;10.04;68.82
50434;BME280;36361;38.954;-9.002;2023-01-28T01:37:59;101284.81;;;9.86;71.12
50434;BME280;36361;38.954;-9.002;2023-01-28T01:39:00;101284.56;;;10.03;70.42
50434;BME280;36361;38.954;-9.002;2023-01-28T01:40:02;101281.13;;;9.94;69.12
50434;BME280;36361;38.954;-9.002;2023-01-28T01:41:04;101284.06;;;9.92;69.26
50434;BME280;36361;38.954;-9.002;2023-01-28T01:42:09;101283.78;;;10.09;68.44
50434;BME280;36361;38.954;-9.002;2023-01-28T01:43:21;101281.19;;;10.01;68.31
50434;BME280;36361;38.954;-9.002;2023-01-28T01:46:01;101294.53;;;9.95;68.65
50434;BME280;36361;38.954;-9.002;2023-01-28T01:47:02;101288.22;;;9.88;71.45
50434;BME280;36361;38.954;-9.002;2023-01-28T01:48:17;101286.66;;;9.58;71.52
50434;BME280;36361;38.954;-9.002;2023-01-28T01:49:27;101286.13;;;9.48;71.44
50434;BME280;36361;38.954;-9.002;2023-01-28T01:50:39;101284.06;;;9.50;71.77
50434;BME280;36361;38.954;-9.002;2023-01-28T01:51:44;101289.81;;;9.40;72.48
50434;BME280;36361;38.954;-9.002;2023-01-28T01:52:49;101294.59;;;9.59;71.57
50434;BME280;36361;38.954;-9.002;2023-01-28T01:53:52;101281.63;;;9.55;70.34
50434;BME280;36361;38.954;-9.002;2023-01-28T01:54:56;101286.56;;;9.30;72.65
50434;BME280;36361;38.954;-9.002;2023-01-28T01:56:02;101286.13;;;9.48;72.05
50434;BME280;36361;38.954;-9.002;2023-01-28T01:57:07;101286.97;;;9.48;74.29
50434;BME280;36361;38.954;-9.002;2023-01-28T01:58:12;101285.38;;;9.54;73.10
50434;BME280;36361;38.954;-9.002;2023-01-28T01:59:17;101287.16;;;9.68;77.25
50434;BME280;36361;38.954;-9.002;2023-01-28T02:00:20;101293.25;;;9.91;72.91
50434;BME280;36361;38.954;-9.002;2023-01-28T02:01:24;101285.06;;;9.63;71.59
50434;BME280;36361;38.954;-9.002;2023-01-28T02:02:27;101295.47;;;9.81;69.81
50434;BME280;36361;38.954;-9.002;2023-01-28T02:03:39;101292.69;;;9.75;74.94
50434;BME280;36361;38.954;-9.002;2023-01-28T02:04:44;101285.75;;;9.72;69.35
50434;BME280;36361;38.954;-9.002;2023-01-28T02:05:44;101292.94;;;9.80;68.74
50434;BME280;36361;38.954;-9.002;2023-01-28T02:06:46;101295.34;;;9.89;67.98
50434;BME280;36361;38.954;-9.002;2023-01-28T02:07:54;101290.25;;;9.86;67.94
50434;BME280;36361;38.954;-9.002;2023-01-28T02:09:32;101290.56;;;9.70;68.54
50434;BME280;36361;38.954;-9.002;2023-01-28T02:10:35;101283.81;;;9.66;69.20
50434;BME280;36361;38.954;-9.002;2023-01-28T02:11:36;101292.81;;;9.66;68.94
50434;BME280;36361;38.954;-9.002;2023-01-28T02:12:53;101293.88;;;9.29;70.77
50434;BME280;36361;38.954;-9.002;2023-01-28T02:14:02;101292.81;;;9.66;70.70
50434;BME280;36361;38.954;-9.002;2023-01-28T02:15:05;101290.81;;;9.54;71.11
50434;BME280;36361;38.954;-9.002;2023-01-28T02:16:07;101290.56;;;9.70;69.87
50434;BME280;36361;38.954;-9.002;2023-01-28T02:17:08;101290.56;;;9.70;69.61
50434;BME280;36361;38.954;-9.002;2023-01-28T02:18:10;101294.81;;;9.79;68.90
50434;BME280;36361;38.954;-9.002;2023-01-28T02:19:11;101289.38;;;9.79;69.28
50434;BME280;36361;38.954;-9.002;2023-01-28T02:20:24;101291.00;;;9.74;68.23
50434;BME280;36361;38.954;-9.002;2023-01-28T02:22:02;101285.13;;;9.70;68.53
50434;BME280;36361;38.954;-9.002;2023-01-28T02:24:23;101288.16;;;9.60;69.90
50434;BME280;36361;38.954;-9.002;2023-01-28T02:28:58;101298.97;;;9.54;70.15
50434;BME280;36361;38.954;-9.002;2023-01-28T02:31:00;101308.47;;;9.43;70.14
50434;BME280;36361;38.954;-9.002;2023-01-28T02:32:14;101312.38;;;9.40;71.19
50434;BME280;36361;38.954;-9.002;2023-01-28T02:33:21;101308.47;;;9.43;71.68
50434;BME280;36361;38.954;-9.002;2023-01-28T02:35:46;101314.22;;;9.33;72.56
50434;BME280;36361;38.954;-9.002;2023-01-28T02:37:20;101315.69;;;9.36;71.98
50434;BME280;36361;38.954;-9.002;2023-01-28T02:38:32;101312.94;;;9.15;73.25
50434;BME280;36361;38.954;-9.002;2023-01-28T02:39:47;101315.06;;;9.19;75.02
50434;BME280;36361;38.954;-9.002;2023-01-28T02:40:53;101315.97;;;8.90;76.70
50434;BME280;36361;38.954;-9.002;2023-01-28T02:42:18;101311.19;;;8.77;77.73
50434;BME280;36361;38.954;-9.002;2023-01-28T02:43:39;101311.28;;;8.99;76.17
50434;BME280;36361;38.954;-9.002;2023-01-28T02:44:41;101313.06;;;8.77;75.75
50434;BME280;36361;38.954;-9.002;2023-01-28T02:45:45;101318.97;;;8.80;75.18
50434;BME280;36361;38.954;-9.002;2023-01-28T02:47:09;101309.78;;;8.96;74.42
50434;BME280;36361;38.954;-9.002;2023-01-28T02:48:29;101313.06;;;8.92;74.51
50434;BME280;36361;38.954;-9.002;2023-01-28T02:49:38;101312.13;;;8.84;75.03
50434;BME280;36361;38.954;-9.002;2023-01-28T02:50:50;101315.38;;;9.09;72.62
50434;BME280;36361;38.954;-9.002;2023-01-28T02:53:30;101323.72;;;9.08;73.08
50434;BME280;36361;38.954;-9.002;2023-01-28T02:59:03;101318.91;;;9.25;70.29
50434;BME280;36361;38.954;-9.002;2023-01-28T03:02:00;101314.34;;;8.96;71.30
50434;BME280;36361;38.954;-9.002;2023-01-28T03:03:10;101318.88;;;8.89;71.61
50434;BME280;36361;38.954;-9.002;2023-01-28T03:04:20;101318.00;;;9.03;71.50
50434;BME280;36361;38.954;-9.002;2023-01-28T03:05:34;101321.56;;;9.03;71.65
50434;BME280;36361;38.954;-9.002;2023-01-28T03:06:40;101326.53;;;9.00;71.39
50434;BME280;36361;38.954;-9.002;2023-01-28T03:07:43;101323.25;;;9.04;73.09
50434;BME280;36361;38.954;-9.002;2023-01-28T03:10:10;101331.69;;;8.65;71.55
50434;BME280;36361;38.954;-9.002;2023-01-28T03:11:16;101324.00;;;8.39;72.83
50434;BME280;36361;38.954;-9.002;2023-01-28T03:12:39;101317.03;;;8.60;75.18
50434;BME280;36361;38.954;-9.002;2023-01-28T03:14:00;101305.75;;;8.92;73.29
50434;BME280;36361;38.954;-9.002;2023-01-28T03:15:33;101309.69;;;8.90;70.92
50434;BME280;36361;38.954;-9.002;2023-01-28T03:17:01;101310.41;;;9.13;69.24
50434;BME280;36361;38.954;-9.002;2023-01-28T03:18:31;101317.75;;;8.68;69.02
50434;BME280;36361;38.954;-9.002;2023-01-28T03:19:51;101317.72;;;8.39;70.84
50434;BME280;36361;38.954;-9.002;2023-01-28T03:21:26;101313.19;;;8.69;69.95
50434;BME280;36361;38.954;-9.002;2023-01-28T03:22:50;101304.63;;;8.87;69.23
50434;BME280;36361;38.954;-9.002;2023-01-28T03:24:20;101313.44;;;8.89;68.88
50434;BME280;36361;38.954;-9.002;2023-01-28T03:25:44;101308.56;;;8.99;67.99
50434;BME280;36361;38.954;-9.002;2023-01-28T03:28:33;101305.31;;;8.89;66.16
50434;BME280;36361;38.954;-9.002;2023-01-28T03:29:56;101309.50;;;8.76;67.10
50434;BME280;36361;38.954;-9.002;2023-01-28T03:31:18;101308.38;;;8.86;65.89
50434;BME280;36361;38.954;-9.002;2023-01-28T03:32:39;101305.56;;;8.94;64.83
50434;BME280;36361;38.954;-9.002;2023-01-28T03:34:01;101305.22;;;8.67;66.74
50434;BME280;36361;38.954;-9.002;2023-01-28T03:35:23;101297.13;;;8.30;68.44
50434;BME280;36361;38.954;-9.002;2023-01-28T03:36:46;101299.56;;;8.24;68.69
50434;BME280;36361;38.954;-9.002;2023-01-28T03:38:10;101305.41;;;8.51;70.02
50434;BME280;36361;38.954;-9.002;2023-01-28T03:39:28;101300.25;;;8.86;66.48
50434;BME280;36361;38.954;-9.002;2023-01-28T03:40:30;101301.00;;;8.79;65.65
50434;BME280;36361;38.954;-9.002;2023-01-28T03:41:31;101303.78;;;9.01;63.53
50434;BME280;36361;38.954;-9.002;2023-01-28T03:42:35;101304.44;;;9.03;64.12
50434;BME280;36361;38.954;-9.002;2023-01-28T03:43:56;101308.47;;;8.92;63.26
50434;BME280;36361;38.954;-9.002;2023-01-28T03:44:58;101306.28;;;9.17;62.16
50434;BME280;36361;38.954;-9.002;2023-01-28T03:46:02;101311.81;;;9.09;62.71
50434;BME280;36361;38.954;-9.002;2023-01-28T03:47:03;101305.75;;;8.77;65.17
50434;BME280;36361;38.954;-9.002;2023-01-28T03:48:06;101300.91;;;8.58;65.96
50434;BME280;36361;38.954;-9.002;2023-01-28T03:49:07;101310.06;;;8.57;66.03
50434;BME280;36361;38.954;-9.002;2023-01-28T03:50:15;101302.03;;;8.78;64.50
50434;BME280;36361;38.954;-9.002;2023-01-28T03:51:25;101295.47;;;8.58;63.88
50434;BME280;36361;38.954;-9.002;2023-01-28T03:52:29;101305.97;;;8.61;64.27
50434;BME280;36361;38.954;-9.002;2023-01-28T03:54:05;101306.88;;;8.98;61.98
50434;BME280;36361;38.954;-9.002;2023-01-28T03:55:07;101311.94;;;9.01;61.58
50434;BME280;36361;38.954;-9.002;2023-01-28T03:56:14;101299.78;;;8.97;61.99
50434;BME280;36361;38.954;-9.002;2023-01-28T03:57:23;101299.50;;;8.92;61.22
50434;BME280;36361;38.954;-9.002;2023-01-28T03:58:25;101307.72;;;8.98;61.66
50434;BME280;36361;38.954;-9.002;2023-01-28T03:59:27;101302.94;;;8.86;61.96
50434;BME280;36361;38.954;-9.002;2023-01-28T04:00:28;101305.56;;;8.94;61.91
50434;BME280;36361;38.954;-9.002;2023-01-28T04:01:30;101303.13;;;8.99;61.57
50434;BME280;36361;38.954;-9.002;2023-01-28T04:02:30;101303.19;;;8.69;64.05
50434;BME280;36361;38.954;-9.002;2023-01-28T04:03:31;101298.41;;;8.71;63.93
50434;BME280;36361;38.954;-9.002;2023-01-28T04:04:38;101297.06;;;8.67;65.75
50434;BME280;36361;38.954;-9.002;2023-01-28T04:05:39;101300.97;;;9.09;71.21
50434;BME280;36361;38.954;-9.002;2023-01-28T04:06:39;101302.00;;;9.08;62.42
50434;BME280;36361;38.954;-9.002;2023-01-28T04:08:15;101299.94;;;9.31;60.61
50434;BME280;36361;38.954;-9.002;2023-01-28T04:09:31;101303.19;;;9.20;63.12
50434;BME280;36361;38.954;-9.002;2023-01-28T04:10:55;101309.09;;;9.45;67.10
50434;BME280;36361;38.954;-9.002;2023-01-28T04:12:01;101309.03;;;9.38;60.09
50434;BME280;36361;38.954;-9.002;2023-01-28T04:13:07;101302.75;;;9.38;58.99
50434;BME280;36361;38.954;-9.002;2023-01-28T04:14:08;101306.44;;;9.30;60.16
50434;BME280;36361;38.954;-9.002;2023-01-28T04:15:38;101311.44;;;9.12;60.05
50434;BME280;36361;38.954;-9.002;2023-01-28T04:16:40;101316.00;;;9.26;59.56
50434;BME280;36361;38.954;-9.002;2023-01-28T04:17:51;101302.63;;;9.25;60.27
50434;BME280;36361;38.954;-9.002;2023-01-28T04:19:01;101308.22;;;9.23;60.15
50434;BME280;36361;38.954;-9.002;2023-01-28T04:20:03;101303.56;;;9.17;61.11
50434;BME280;36361;38.954;-9.002;2023-01-28T04:21:06;101300.22;;;9.00;61.62
50434;BME280;36361;38.954;-9.002;2023-01-28T04:22:10;101293.41;;;8.90;61.52
50434;BME280;36361;38.954;-9.002;2023-01-28T04:23:13;101291.53;;;8.75;62.03
50434;BME280;36361;38.954;-9.002;2023-01-28T04:24:15;101301.56;;;8.75;61.74
50434;BME280;36361;38.954;-9.002;2023-01-28T04:25:19;101297.66;;;8.63;63.05
50434;BME280;36361;38.954;-9.002;2023-01-28T04:26:20;101298.38;;;8.57;64.13
50434;BME280;36361;38.954;-9.002;2023-01-28T04:27:22;101289.50;;;8.63;62.83
50434;BME280;36361;38.954;-9.002;2023-01-28T04:28:24;101295.97;;;8.62;63.52
50434;BME280;36361;38.954;-9.002;2023-01-28T04:29:25;101288.09;;;8.67;63.19
50434;BME280;36361;38.954;-9.002;2023-01-28T04:30:28;101296.53;;;8.42;63.37
50434;BME280;36361;38.954;-9.002;2023-01-28T04:32:00;101287.44;;;8.50;63.68
50434;BME280;36361;38.954;-9.002;2023-01-28T04:33:31;101289.69;;;8.61;62.67
50434;BME280;36361;38.954;-9.002;2023-01-28T04:34:36;101283.34;;;8.54;61.68
50434;BME280;36361;38.954;-9.002;2023-01-28T04:36:06;101294.63;;;8.58;61.81
50434;BME280;36361;38.954;-9.002;2023-01-28T04:37:41;101294.66;;;8.43;62.37
50434;BME280;36361;38.954;-9.002;2023-01-28T04:38:58;101295.75;;;8.48;61.12
50434;BME280;36361;38.954;-9.002;2023-01-28T04:40:12;101301.09;;;8.57;60.60
50434;BME280;36361;38.954;-9.002;2023-01-28T04:41:27;101297.75;;;8.54;61.33
50434;BME280;36361;38.954;-9.002;2023-01-28T04:42:32;101303.34;;;8.53;61.73
50434;BME280;36361;38.954;-9.002;2023-01-28T04:43:44;101300.84;;;8.51;60.98
50434;BME280;36361;38.954;-9.002;2023-01-28T04:45:10;101302.59;;;8.44;61.02
50434;BME280;36361;38.954;-9.002;2023-01-28T04:46:34;101298.22;;;8.43;60.43
50434;BME280;36361;38.954;-9.002;2023-01-28T04:47:37;101288.03;;;8.60;58.76
50434;BME280;36361;38.954;-9.002;2023-01-28T04:48:57;101303.91;;;8.63;58.80
50434;BME280;36361;38.954;-9.002;2023-01-28T04:50:15;101300.00;;;8.51;58.37
50434;BME280;36361;38.954;-9.002;2023-01-28T04:51:32;101301.84;;;8.65;57.77
50434;BME280;36361;38.954;-9.002;2023-01-28T04:52:57;101304.91;;;8.77;58.07
50434;BME280;36361;38.954;-9.002;2023-01-28T04:54:17;101311.06;;;8.26;59.72
50434;BME280;36361;38.954;-9.002;2023-01-28T04:55:17;101303.94;;;8.25;60.30
50434;BME280;36361;38.954;-9.002;2023-01-28T04:56:19;101306.88;;;8.39;59.85
50434;BME280;36361;38.954;-9.002;2023-01-28T04:57:20;101313.81;;;8.56;59.37
50434;BME280;36361;38.954;-9.002;2023-01-28T04:58:21;101292.22;;;8.63;59.58
50434;BME280;36361;38.954;-9.002;2023-01-28T04:59:25;101302.50;;;8.67;59.34
50434;BME280;36361;38.954;-9.002;2023-01-28T05:00:27;101310.06;;;8.57;59.10
50434;BME280;36361;38.954;-9.002;2023-01-28T05:01:28;101315.16;;;8.60;59.00
50434;BME280;36361;38.954;-9.002;2023-01-28T05:02:30;101309.34;;;8.63;58.84
50434;BME280;36361;38.954;-9.002;2023-01-28T05:03:31;101303.72;;;8.50;59.97
50434;BME280;36361;38.954;-9.002;2023-01-28T05:04:32;101297.53;;;8.56;60.83
50434;BME280;36361;38.954;-9.002;2023-01-28T05:05:34;101309.44;;;8.70;62.17
50434;BME280;36361;38.954;-9.002;2023-01-28T05:06:50;101303.06;;;9.28;67.22
50434;BME280;36361;38.954;-9.002;2023-01-28T05:07:57;101302.09;;;9.00;60.16
50434;BME280;36361;38.954;-9.002;2023-01-28T05:08:58;101307.69;;;9.13;61.95
50434;BME280;36361;38.954;-9.002;2023-01-28T05:09:59;101305.66;;;9.36;63.43
50434;BME280;36361;38.954;-9.002;2023-01-28T05:10:59;101303.22;;;9.63;61.68
50434;BME280;36361;38.954;-9.002;2023-01-28T05:12:00;101299.22;;;9.80;63.33
50434;BME280;36361;38.954;-9.002;2023-01-28T05:13:03;101301.78;;;9.67;57.03
50434;BME280;36361;38.954;-9.002;2023-01-28T05:14:05;101293.53;;;9.54;57.27
50434;BME280;36361;38.954;-9.002;2023-01-28T05:15:17;101291.28;;;9.21;58.90
50434;BME280;36361;38.954;-9.002;2023-01-28T05:16:18;101296.66;;;9.15;59.76
50434;BME280;36361;38.954;-9.002;2023-01-28T05:17:18;101302.66;;;8.95;60.14
50434;BME280;36361;38.954;-9.002;2023-01-28T05:18:19;101304.63;;;8.87;61.53
50434;BME280;36361;38.954;-9.002;2023-01-28T05:19:31;101307.63;;;8.92;62.77
50434;BME280;36361;38.954;-9.002;2023-01-28T05:20:32;101317.75;;;8.98;59.41
50434;BME280;36361;38.954;-9.002;2023-01-28T05:21:36;101317.19;;;8.58;61.93
50434;BME280;36361;38.954;-9.002;2023-01-28T05:22:42;101311.97;;;8.42;63.28
50434;BME280;36361;38.954;-9.002;2023-01-28T05:23:54;101318.50;;;8.47;64.55
50434;BME280;36361;38.954;-9.002;2023-01-28T05:24:56;101310.63;;;8.38;62.92
50434;BME280;36361;38.954;-9.002;2023-01-28T05:25:57;101311.59;;;8.22;64.86
50434;BME280;36361;38.954;-9.002;2023-01-28T05:26:59;101314.50;;;8.20;66.82
50434;BME280;36361;38.954;-9.002;2023-01-28T05:28:00;101316.13;;;7.92;69.02
50434;BME280;36361;38.954;-9.002;2023-01-28T05:29:01;101315.03;;;8.01;69.14
50434;BME280;36361;38.954;-9.002;2023-01-28T05:30:03;101319.59;;;8.01;70.76
50434;BME280;36361;38.954;-9.002;2023-01-28T05:31:06;101319.50;;;7.48;73.37
50434;BME280;36361;38.954;-9.002;2023-01-28T05:32:07;101317.47;;;7.50;72.95
50434;BME280;36361;38.954;-9.002;2023-01-28T05:33:08;101315.50;;;7.36;75.77
50434;BME280;36361;38.954;-9.002;2023-01-28T05:34:09;101308.66;;;7.48;74.46
50434;BME280;36361;38.954;-9.002;2023-01-28T05:35:10;101303.97;;;7.65;72.38
50434;BME280;36361;38.954;-9.002;2023-01-28T05:36:13;101302.41;;;7.48;72.74
50434;BME280;36361;38.954;-9.002;2023-01-28T05:37:15;101300.97;;;7.60;73.55
50434;BME280;36361;38.954;-9.002;2023-01-28T05:38:16;101305.06;;;7.56;74.33
50434;BME280;36361;38.954;-9.002;2023-01-28T05:39:17;101305.16;;;7.39;75.49
50434;BME280;36361;38.954;-9.002;2023-01-28T05:40:18;101301.81;;;7.06;77.04
50434;BME280;36361;38.954;-9.002;2023-01-28T05:41:19;101302.06;;;6.89;79.79
50434;BME280;36361;38.954;-9.002;2023-01-28T05:42:27;101306.50;;;7.12;75.90
50434;BME280;36361;38.954;-9.002;2023-01-28T05:43:37;101308.28;;;7.28;71.01
50434;BME280;36361;38.954;-9.002;2023-01-28T05:44:48;101305.34;;;7.38;69.76
50434;BME280;36361;38.954;-9.002;2023-01-28T05:45:52;101306.88;;;7.63;72.26
50434;BME280;36361;38.954;-9.002;2023-01-28T05:47:16;101307.72;;;7.87;69.40
50434;BME280;36361;38.954;-9.002;2023-01-28T05:48:40;101302.81;;;8.05;66.75
50434;BME280;36361;38.954;-9.002;2023-01-28T05:49:59;101313.41;;;7.92;67.62
50434;BME280;36361;38.954;-9.002;2023-01-28T05:51:09;101307.84;;;7.70;68.44
50434;BME280;36361;38.954;-9.002;2023-01-28T05:52:18;101311.31;;;7.56;69.82
50434;BME280;36361;38.954;-9.002;2023-01-28T05:53:19;101307.06;;;7.62;69.94
50434;BME280;36361;38.954;-9.002;2023-01-28T05:54:21;101303.38;;;7.78;68.68
50434;BME280;36361;38.954;-9.002;2023-01-28T05:55:22;101305.84;;;8.02;67.64
50434;BME280;36361;38.954;-9.002;2023-01-28T05:56:23;101308.13;;;8.13;68.36
50434;BME280;36361;38.954;-9.002;2023-01-28T05:57:24;101298.16;;;8.14;66.82
50434;BME280;36361;38.954;-9.002;2023-01-28T05:58:25;101308.53;;;8.25;70.84
50434;BME280;36361;38.954;-9.002;2023-01-28T05:59:30;101312.63;;;8.06;67.69
50434;BME280;36361;38.954;-9.002;2023-01-28T06:00:33;101308.31;;;8.35;68.77
50434;BME280;36361;38.954;-9.002;2023-01-28T06:01:37;101320.50;;;8.31;66.94
50434;BME280;36361;38.954;-9.002;2023-01-28T06:02:38;101306.34;;;8.43;66.59
50434;BME280;36361;38.954;-9.002;2023-01-28T06:03:40;101310.25;;;8.41;65.47
50434;BME280;36361;38.954;-9.002;2023-01-28T06:04:41;101299.16;;;8.50;69.55
50434;BME280;36361;38.954;-9.002;2023-01-28T06:05:43;101294.66;;;8.43;65.81
50434;BME280;36361;38.954;-9.002;2023-01-28T06:06:45;101294.56;;;8.13;65.35
50434;BME280;36361;38.954;-9.002;2023-01-28T06:07:47;101301.25;;;8.25;69.77
50434;BME280;36361;38.954;-9.002;2023-01-28T06:08:48;101310.41;;;8.24;65.79